createdAt,value
2022-12-01T00:01:16.235Z,6.00
2022-12-01T00:03:43.319Z,6.00
2022-12-01T00:06:11.345Z,6.00
2022-12-01T00:08:38.831Z,6.00
2022-12-01T00:11:12.212Z,5.90
2022-12-01T00:13:39.218Z,5.90
2022-12-01T00:16:14.221Z,6.00
2022-12-01T00:18:41.467Z,6.00
2022-12-01T00:21:19.775Z,6.00
2022-12-01T00:23:47.975Z,5.90
2022-12-01T00:26:16.338Z,6.00
2022-12-01T00:28:43.367Z,6.00
2022-12-01T00:31:11.881Z,5.90
2022-12-01T00:33:39.808Z,6.00
2022-12-01T00:36:07.507Z,6.00
2022-12-01T00:38:34.944Z,5.90
2022-12-01T00:41:02.258Z,5.90
2022-12-01T00:43:29.196Z,5.90
2022-12-01T00:45:56.661Z,5.90
2022-12-01T00:48:23.966Z,5.90
2022-12-01T00:50:52.770Z,5.90
2022-12-01T00:53:19.665Z,5.90
2022-12-01T00:55:47.083Z,5.90
2022-12-01T00:58:13.921Z,5.80
2022-12-01T01:00:42.879Z,5.80
2022-12-01T01:03:10.790Z,5.80
2022-12-01T01:05:39.034Z,5.80
2022-12-01T01:08:10.957Z,5.90
2022-12-01T01:10:46.302Z,5.80
2022-12-01T01:13:14.245Z,5.80
2022-12-01T01:15:41.400Z,5.80
2022-12-01T01:18:10.411Z,5.80
2022-12-01T01:20:37.415Z,5.80
2022-12-01T01:23:04.329Z,5.90
2022-12-01T01:25:32.717Z,5.90
2022-12-01T01:27:59.735Z,5.80
2022-12-01T01:30:27.024Z,5.90
2022-12-01T01:32:54.272Z,5.80
2022-12-01T01:35:21.360Z,5.90
2022-12-01T01:37:50.094Z,5.90
2022-12-01T01:40:17.373Z,5.90
2022-12-01T01:42:44.204Z,5.80
2022-12-01T01:45:25.209Z,5.80
2022-12-01T01:47:53.775Z,5.80
2022-12-01T01:50:24.261Z,5.80
2022-12-01T01:53:01.175Z,5.90
2022-12-01T01:55:31.700Z,5.80
2022-12-01T01:57:59.426Z,5.80
2022-12-01T02:00:26.391Z,5.80
2022-12-01T02:02:54.155Z,5.80
2022-12-01T02:05:27.884Z,5.90
2022-12-01T02:07:57.268Z,5.90
2022-12-01T02:10:38.093Z,5.90
2022-12-01T02:13:31.545Z,5.90
2022-12-01T02:16:14.468Z,5.80
2022-12-01T02:19:07.760Z,5.80
2022-12-01T02:22:25.595Z,5.80
2022-12-01T02:25:18.409Z,5.80
2022-12-01T02:28:11.536Z,5.80
2022-12-01T02:31:01.205Z,5.80
2022-12-01T02:33:32.517Z,5.80
2022-12-01T02:36:15.414Z,5.80
2022-12-01T02:38:49.574Z,5.80
2022-12-01T02:41:23.113Z,5.80
2022-12-01T02:43:58.106Z,5.80
2022-12-01T02:46:25.077Z,5.80
2022-12-01T02:48:54.902Z,5.70
2022-12-01T02:51:28.981Z,5.70
2022-12-01T02:53:58.455Z,5.70
2022-12-01T02:56:25.790Z,5.90
2022-12-01T02:58:52.709Z,5.70
2022-12-01T03:01:38.456Z,5.70
2022-12-01T03:04:43.068Z,5.70
2022-12-01T03:07:21.110Z,5.70
2022-12-01T03:10:00.324Z,5.70
2022-12-01T03:12:42.133Z,5.70
2022-12-01T03:15:31.891Z,5.70
2022-12-01T03:18:23.266Z,5.70
2022-12-01T03:20:50.147Z,5.70
2022-12-01T03:23:21.179Z,5.70
2022-12-01T03:25:51.805Z,5.80
2022-12-01T03:28:23.759Z,5.70
2022-12-01T03:30:56.503Z,5.80
2022-12-01T03:33:36.527Z,5.70
2022-12-01T03:36:40.848Z,5.70
2022-12-01T03:39:14.991Z,5.70
2022-12-01T03:41:49.094Z,5.70
2022-12-01T03:44:24.341Z,5.70
2022-12-01T03:47:04.366Z,5.70
2022-12-01T03:49:32.057Z,5.60
2022-12-01T03:52:03.833Z,5.70
2022-12-01T03:54:45.370Z,5.70
2022-12-01T03:57:18.603Z,5.70
2022-12-01T03:59:47.765Z,5.70
2022-12-01T04:02:15.179Z,5.70
2022-12-01T04:04:42.077Z,5.70
2022-12-01T04:07:13.392Z,5.70
2022-12-01T04:09:41.902Z,5.70
2022-12-01T04:12:32.820Z,5.70
2022-12-01T04:15:02.471Z,5.70
2022-12-01T04:17:29.773Z,5.60
2022-12-01T04:19:57.017Z,5.60
2022-12-01T04:22:24.426Z,5.60
2022-12-01T04:24:51.776Z,5.60
2022-12-01T04:27:19.729Z,5.60
2022-12-01T04:29:47.341Z,5.60
2022-12-01T04:32:14.596Z,5.60
2022-12-01T04:34:41.475Z,5.60
2022-12-01T04:37:10.143Z,5.60
2022-12-01T04:39:37.198Z,5.60
2022-12-01T04:42:05.087Z,5.60
2022-12-01T04:44:35.036Z,5.60
2022-12-01T04:47:03.525Z,5.60
2022-12-01T04:49:30.856Z,5.60
2022-12-01T04:51:57.866Z,5.60
2022-12-01T04:54:25.266Z,5.60
2022-12-01T04:56:52.134Z,5.60
2022-12-01T04:59:19.083Z,5.50
2022-12-01T05:01:48.187Z,5.50
2022-12-01T05:04:15.876Z,5.50
2022-12-01T05:06:43.283Z,5.60
2022-12-01T05:09:17.373Z,5.60
2022-12-01T05:11:44.915Z,5.50
2022-12-01T05:14:11.819Z,5.50
2022-12-01T05:16:38.882Z,5.50
2022-12-01T05:19:25.332Z,5.40
2022-12-01T05:21:52.469Z,5.50
2022-12-01T05:24:20.526Z,5.50
2022-12-01T05:26:47.410Z,5.40
2022-12-01T05:29:14.358Z,5.50
2022-12-01T05:31:41.389Z,5.40
2022-12-01T05:34:08.961Z,5.50
2022-12-01T05:36:36.427Z,5.50
2022-12-01T05:39:04.390Z,5.40
2022-12-01T05:41:31.688Z,5.50
2022-12-01T05:43:58.610Z,5.50
2022-12-01T05:46:25.633Z,5.40
2022-12-01T05:48:52.635Z,5.40
2022-12-01T05:51:19.581Z,5.40
2022-12-01T05:53:46.612Z,5.40
2022-12-01T05:56:13.617Z,5.40
2022-12-01T05:58:40.613Z,5.40
2022-12-01T06:01:07.639Z,5.40
2022-12-01T06:03:34.549Z,5.40
2022-12-01T06:06:01.465Z,5.40
2022-12-01T06:08:28.435Z,5.40
2022-12-01T06:10:55.387Z,5.40
2022-12-01T06:13:22.330Z,5.40
2022-12-01T06:16:00.333Z,5.40
2022-12-01T06:18:28.080Z,5.40
2022-12-01T06:20:54.996Z,5.50
2022-12-01T06:23:24.295Z,5.40
2022-12-01T06:25:54.568Z,5.40
2022-12-01T06:28:21.917Z,5.40
2022-12-01T06:30:48.798Z,5.40
2022-12-01T06:33:15.718Z,5.40
2022-12-01T06:35:42.695Z,5.40
2022-12-01T06:38:09.647Z,5.40
2022-12-01T06:40:36.759Z,5.30
2022-12-01T06:43:04.020Z,5.40
2022-12-01T06:45:31.630Z,5.40
2022-12-01T06:47:58.580Z,5.40
2022-12-01T06:50:26.020Z,5.40
2022-12-01T06:52:53.072Z,5.40
2022-12-01T06:55:20.043Z,5.30
2022-12-01T06:57:47.302Z,5.30
2022-12-01T07:00:14.966Z,5.30
2022-12-01T07:02:42.212Z,5.30
2022-12-01T07:05:09.453Z,5.30
2022-12-01T07:07:40.669Z,5.30
2022-12-01T07:10:09.372Z,5.20
2022-12-01T07:12:36.334Z,5.30
2022-12-01T07:15:04.464Z,5.30
2022-12-01T07:17:31.340Z,5.30
2022-12-01T07:19:58.482Z,5.30
2022-12-01T07:22:29.603Z,5.30
2022-12-01T07:24:59.459Z,5.30
2022-12-01T07:27:29.880Z,5.30
2022-12-01T07:29:56.795Z,5.20
2022-12-01T07:32:23.846Z,5.30
2022-12-01T07:34:50.756Z,5.30
2022-12-01T07:37:18.805Z,5.20
2022-12-01T07:39:45.655Z,5.30
2022-12-01T07:42:12.460Z,5.30
2022-12-01T07:44:39.346Z,5.30
2022-12-01T07:47:06.256Z,5.20
2022-12-01T07:49:34.314Z,5.20
2022-12-01T07:52:01.161Z,5.30
2022-12-01T07:54:28.088Z,5.30
2022-12-01T07:56:54.965Z,5.30
2022-12-01T07:59:21.970Z,5.40
2022-12-01T08:01:48.865Z,5.40
2022-12-01T08:04:15.800Z,5.30
2022-12-01T08:06:42.795Z,5.40
2022-12-01T08:09:09.713Z,5.40
2022-12-01T08:11:36.650Z,5.40
2022-12-01T08:14:03.627Z,5.50
2022-12-01T08:16:31.413Z,5.50
2022-12-01T08:18:58.488Z,5.50
2022-12-01T08:21:25.384Z,5.40
2022-12-01T08:23:54.661Z,5.50
2022-12-01T08:26:23.278Z,5.50
2022-12-01T08:28:50.310Z,5.50
2022-12-01T08:31:17.208Z,5.50
2022-12-01T08:33:44.252Z,5.50
2022-12-01T08:36:11.291Z,5.60
2022-12-01T08:38:38.276Z,5.50
2022-12-01T08:41:08.573Z,5.50
2022-12-01T08:46:36.989Z,5.40
2022-12-01T08:49:05.512Z,5.50
2022-12-01T08:51:32.459Z,5.50
2022-12-01T08:54:00.450Z,5.60
2022-12-01T08:56:44.734Z,5.70
2022-12-01T08:59:11.710Z,5.80
2022-12-01T09:01:53.953Z,5.80
2022-12-01T09:04:23.829Z,5.90
2022-12-01T09:06:52.800Z,6.00
2022-12-01T09:09:25.527Z,6.20
2022-12-01T09:11:53.229Z,6.20
2022-12-01T09:14:21.960Z,6.20
2022-12-01T09:16:50.137Z,6.10
2022-12-01T09:19:23.946Z,6.20
2022-12-01T09:21:52.584Z,6.20
2022-12-01T09:24:19.608Z,6.30
2022-12-01T09:26:46.538Z,6.30
2022-12-01T09:29:15.213Z,6.30
2022-12-01T09:31:43.173Z,6.30
2022-12-01T09:34:15.986Z,6.40
2022-12-01T09:36:44.683Z,6.20
2022-12-01T09:39:17.047Z,6.30
2022-12-01T09:42:13.783Z,6.30
2022-12-01T09:44:53.309Z,6.30
2022-12-01T09:47:26.267Z,6.50
2022-12-01T09:49:56.459Z,6.70
2022-12-01T09:52:26.490Z,6.70
2022-12-01T09:54:55.265Z,6.70
2022-12-01T09:57:29.734Z,6.90
2022-12-01T09:59:58.543Z,7.10
2022-12-01T10:02:29.558Z,6.90
2022-12-01T10:04:59.413Z,6.80
2022-12-01T10:07:35.018Z,7.00
2022-12-01T10:10:12.889Z,6.90
2022-12-01T10:12:43.262Z,6.70
2022-12-01T10:15:26.076Z,6.80
2022-12-01T10:18:35.000Z,6.70
2022-12-01T10:21:13.319Z,6.60
2022-12-01T10:24:10.077Z,6.50
2022-12-01T10:26:40.038Z,6.60
2022-12-01T10:29:20.285Z,6.60
2022-12-01T10:31:53.349Z,6.50
2022-12-01T10:34:30.090Z,6.40
2022-12-01T10:36:58.041Z,6.40
2022-12-01T10:39:36.722Z,6.30
2022-12-01T10:42:27.265Z,6.30
2022-12-01T10:44:56.354Z,6.30
2022-12-01T10:47:25.509Z,6.70
2022-12-01T10:49:53.143Z,6.70
2022-12-01T10:52:34.137Z,7.10
2022-12-01T10:55:02.242Z,7.40
2022-12-01T10:57:31.112Z,7.40
2022-12-01T11:00:08.994Z,7.30
2022-12-01T11:02:36.324Z,7.10
2022-12-01T11:05:07.068Z,7.10
2022-12-01T11:07:41.874Z,7.10
2022-12-01T11:10:27.566Z,7.00
2022-12-01T11:12:54.447Z,7.00
2022-12-01T11:15:26.877Z,7.10
2022-12-01T11:18:03.152Z,6.90
2022-12-01T11:20:39.948Z,6.80
2022-12-01T11:23:20.705Z,6.70
2022-12-01T11:26:15.117Z,6.70
2022-12-01T11:28:58.667Z,6.70
2022-12-01T11:31:45.224Z,6.70
2022-12-01T11:34:30.074Z,6.60
2022-12-01T11:37:00.417Z,6.60
2022-12-01T11:39:40.269Z,6.60
2022-12-01T11:42:27.781Z,6.60
2022-12-01T11:45:20.482Z,6.60
2022-12-01T11:48:17.341Z,6.70
2022-12-01T11:51:22.502Z,6.60
2022-12-01T11:53:49.423Z,6.50
2022-12-01T11:56:23.938Z,6.40
2022-12-01T11:59:02.352Z,6.50
2022-12-01T12:01:41.311Z,6.60
2022-12-01T12:04:43.711Z,6.70
2022-12-01T12:07:39.829Z,6.80
2022-12-01T12:10:45.400Z,7.30
2022-12-01T12:13:45.096Z,8.00
2022-12-01T12:16:30.255Z,8.40
2022-12-01T12:19:02.004Z,8.30
2022-12-01T12:21:55.958Z,7.70
2022-12-01T12:24:25.852Z,7.30
2022-12-01T12:27:32.836Z,7.00
2022-12-01T12:30:24.282Z,6.90
2022-12-01T12:32:59.971Z,6.70
2022-12-01T12:36:14.332Z,6.70
2022-12-01T12:39:19.369Z,6.90
2022-12-01T12:41:52.014Z,7.10
2022-12-01T12:44:37.387Z,7.10
2022-12-01T12:47:22.189Z,7.00
2022-12-01T12:50:07.394Z,6.90
2022-12-01T12:52:48.136Z,6.90
2022-12-01T12:55:34.577Z,6.90
2022-12-01T12:58:26.399Z,6.80
2022-12-01T13:01:05.234Z,6.90
2022-12-01T13:04:02.141Z,6.80
2022-12-01T13:06:32.001Z,6.70
2022-12-01T13:09:15.226Z,6.50
2022-12-01T13:12:17.039Z,6.50
2022-12-01T13:14:48.631Z,6.50
2022-12-01T13:17:24.610Z,6.60
2022-12-01T13:19:51.811Z,6.70
2022-12-01T13:22:24.212Z,6.60
2022-12-01T13:24:51.117Z,6.50
2022-12-01T13:27:21.229Z,6.60
2022-12-01T13:29:52.452Z,6.70
2022-12-01T13:32:40.549Z,6.80
2022-12-01T13:35:35.054Z,6.80
2022-12-01T13:38:33.949Z,6.70
2022-12-01T13:41:18.212Z,6.80
2022-12-01T13:43:54.292Z,6.80
2022-12-01T13:46:24.522Z,6.80
2022-12-01T13:48:54.631Z,6.70
2022-12-01T13:51:21.667Z,6.60
2022-12-01T13:53:57.470Z,6.70
2022-12-01T13:56:39.340Z,6.60
2022-12-01T13:59:43.887Z,6.40
2022-12-01T14:02:21.093Z,6.40
2022-12-01T14:04:48.722Z,6.40
2022-12-01T14:07:36.478Z,6.30
2022-12-01T14:10:24.779Z,6.30
2022-12-01T14:12:54.053Z,6.30
2022-12-01T14:15:35.462Z,6.20
2022-12-01T14:18:23.598Z,6.10
2022-12-01T14:20:50.744Z,6.10
2022-12-01T14:23:29.287Z,6.00
2022-12-01T14:26:14.309Z,5.90
2022-12-01T14:29:23.506Z,5.90
2022-12-01T14:31:50.484Z,5.90
2022-12-01T14:34:19.949Z,6.00
2022-12-01T14:36:52.731Z,6.00
2022-12-01T14:39:23.468Z,5.90
2022-12-01T14:41:58.256Z,5.90
2022-12-01T14:44:36.293Z,5.80
2022-12-01T14:47:29.223Z,5.80
2022-12-01T14:50:12.262Z,5.80
2022-12-01T14:52:42.254Z,5.70
2022-12-01T14:55:27.657Z,5.60
2022-12-01T14:58:05.197Z,5.50
2022-12-01T15:00:36.584Z,5.40
2022-12-01T15:03:13.038Z,5.40
2022-12-01T15:05:42.725Z,5.30
2022-12-01T15:11:21.190Z,5.20
2022-12-01T15:13:52.423Z,5.20
2022-12-01T15:16:22.840Z,5.10
2022-12-01T15:18:50.842Z,5.00
2022-12-01T15:21:30.510Z,5.00
2022-12-01T15:24:06.554Z,5.00
2022-12-01T15:26:48.656Z,5.00
2022-12-01T15:29:35.277Z,5.00
2022-12-01T15:32:07.054Z,5.00
2022-12-01T15:34:40.075Z,5.00
2022-12-01T15:37:15.706Z,4.90
2022-12-01T15:39:50.348Z,5.00
2022-12-01T15:42:26.729Z,5.00
2022-12-01T15:45:02.520Z,5.00
2022-12-01T15:47:56.974Z,4.90
2022-12-01T15:50:26.516Z,4.90
2022-12-01T15:52:53.445Z,4.90
2022-12-01T15:55:27.179Z,4.90
2022-12-01T15:57:54.569Z,4.80
2022-12-01T16:00:22.380Z,4.80
2022-12-01T16:02:52.526Z,4.80
2022-12-01T16:05:23.984Z,4.70
2022-12-01T16:08:12.796Z,4.70
2022-12-01T16:10:37.780Z,4.70
2022-12-01T16:13:42.139Z,4.60
2022-12-01T16:16:30.138Z,4.60
2022-12-01T16:19:07.868Z,4.60
2022-12-01T16:21:42.738Z,4.60
2022-12-01T16:24:14.759Z,4.50
2022-12-01T16:27:21.144Z,4.60
2022-12-01T16:29:56.092Z,4.60
2022-12-01T16:32:40.766Z,4.50
2022-12-01T16:35:27.405Z,4.50
2022-12-01T16:37:55.387Z,4.50
2022-12-01T16:40:22.700Z,4.50
2022-12-01T16:42:50.071Z,4.40
2022-12-01T16:45:18.893Z,4.40
2022-12-01T16:47:47.989Z,4.40
2022-12-01T16:50:17.008Z,4.40
2022-12-01T16:52:45.341Z,4.40
2022-12-01T16:55:41.796Z,4.30
2022-12-01T16:58:08.731Z,4.30
2022-12-01T17:00:36.090Z,4.30
2022-12-01T17:03:04.435Z,4.30
2022-12-01T17:05:31.732Z,4.20
2022-12-01T17:07:58.730Z,4.20
2022-12-01T17:10:26.188Z,4.30
2022-12-01T17:12:53.157Z,4.20
2022-12-01T17:15:20.228Z,4.20
2022-12-01T17:17:47.203Z,4.30
2022-12-01T17:20:15.124Z,4.20
2022-12-01T17:22:42.183Z,4.30
2022-12-01T17:25:12.429Z,4.30
2022-12-01T17:27:39.501Z,4.20
2022-12-01T17:30:07.343Z,4.30
2022-12-01T17:32:34.253Z,4.30
2022-12-01T17:35:01.163Z,4.30
2022-12-01T17:37:28.198Z,4.20
2022-12-01T17:39:55.139Z,4.20
2022-12-01T17:42:22.814Z,4.20
2022-12-01T17:44:49.930Z,4.20
2022-12-01T17:47:17.234Z,4.20
2022-12-01T17:49:44.183Z,4.20
2022-12-01T17:52:11.153Z,4.20
2022-12-01T17:54:38.264Z,4.20
2022-12-01T17:57:07.355Z,4.20
2022-12-01T17:59:36.691Z,4.20
2022-12-01T18:02:04.196Z,4.20
2022-12-01T18:04:31.668Z,4.20
2022-12-01T18:06:59.379Z,4.30
2022-12-01T18:09:26.814Z,4.20
2022-12-01T18:11:56.213Z,4.20
2022-12-01T18:14:24.295Z,4.20
2022-12-01T18:16:51.493Z,4.20
2022-12-01T18:19:19.252Z,4.20
2022-12-01T18:21:46.178Z,4.20
2022-12-01T18:24:13.090Z,4.20
2022-12-01T18:26:41.074Z,4.20
2022-12-01T18:29:25.589Z,4.20
2022-12-01T18:31:57.032Z,4.20
2022-12-01T18:34:25.128Z,4.20
2022-12-01T18:36:52.218Z,4.20
2022-12-01T18:39:19.169Z,4.20
2022-12-01T18:41:46.297Z,4.10
2022-12-01T18:44:13.416Z,4.20
2022-12-01T18:46:40.451Z,4.20
2022-12-01T18:49:09.034Z,4.20
2022-12-01T18:51:38.139Z,4.10
2022-12-01T18:54:06.893Z,4.10
2022-12-01T18:56:34.415Z,4.20
2022-12-01T18:59:06.668Z,4.10
2022-12-01T19:01:40.380Z,4.10
2022-12-01T19:04:08.865Z,4.10
2022-12-01T19:06:37.515Z,4.10
2022-12-01T19:09:06.396Z,4.20
2022-12-01T19:11:33.598Z,4.20
2022-12-01T19:14:00.932Z,4.10
2022-12-01T19:16:30.924Z,4.10
2022-12-01T19:18:57.856Z,4.10
2022-12-01T19:21:24.824Z,4.10
2022-12-01T19:23:53.142Z,4.10
2022-12-01T19:26:21.595Z,4.10
2022-12-01T19:28:49.150Z,4.10
2022-12-01T19:31:19.322Z,4.10
2022-12-01T19:33:47.148Z,4.10
2022-12-01T19:36:21.828Z,4.10
2022-12-01T19:38:49.595Z,4.10
2022-12-01T19:41:16.735Z,4.10
2022-12-01T19:43:43.599Z,4.10
2022-12-01T19:46:16.181Z,4.10
2022-12-01T19:48:45.312Z,4.00
2022-12-01T19:51:20.732Z,4.00
2022-12-01T19:53:48.119Z,4.00
2022-12-01T19:56:15.680Z,4.10
2022-12-01T19:58:42.639Z,4.00
2022-12-01T20:01:12.545Z,4.00
2022-12-01T20:03:40.724Z,3.90
2022-12-01T20:06:14.372Z,3.90
2022-12-01T20:08:41.583Z,3.90
2022-12-01T20:11:09.149Z,3.90
2022-12-01T20:13:39.679Z,3.90
2022-12-01T20:16:08.371Z,3.80
2022-12-01T20:18:36.489Z,3.90
2022-12-01T20:21:10.668Z,3.90
2022-12-01T20:23:38.078Z,3.80
2022-12-01T20:26:07.137Z,3.80
2022-12-01T20:28:35.368Z,3.80
2022-12-01T20:31:02.893Z,3.80
2022-12-01T20:33:30.202Z,3.70
2022-12-01T20:35:57.179Z,3.70
2022-12-01T20:38:27.512Z,3.70
2022-12-01T20:40:55.592Z,3.70
2022-12-01T20:43:22.514Z,3.70
2022-12-01T20:45:49.482Z,3.60
2022-12-01T20:48:16.689Z,3.60
2022-12-01T20:50:43.990Z,3.60
2022-12-01T20:53:11.038Z,3.60
2022-12-01T20:55:38.576Z,3.60
2022-12-01T20:58:08.596Z,3.50
2022-12-01T21:00:40.356Z,3.50
2022-12-01T21:03:07.322Z,3.50
2022-12-01T21:05:34.317Z,3.50
2022-12-01T21:08:02.502Z,3.60
2022-12-01T21:10:29.473Z,3.60
2022-12-01T21:13:20.941Z,3.60
2022-12-01T21:16:03.585Z,3.60
2022-12-01T21:18:55.365Z,3.60
2022-12-01T21:21:27.944Z,3.60
2022-12-01T21:24:02.318Z,3.60
2022-12-01T21:26:29.385Z,3.60
2022-12-01T21:28:59.135Z,3.60
2022-12-01T21:31:26.802Z,3.60
2022-12-01T21:33:54.062Z,3.70
2022-12-01T21:36:24.008Z,3.60
2022-12-01T21:38:55.849Z,3.60
2022-12-01T21:41:28.513Z,3.70
2022-12-01T21:44:00.136Z,3.70
2022-12-01T21:46:28.054Z,3.70
2022-12-01T21:48:55.277Z,3.70
2022-12-01T21:51:24.416Z,3.70
2022-12-01T21:53:53.094Z,3.70
2022-12-01T21:56:21.351Z,3.70
2022-12-01T21:58:49.230Z,3.70
2022-12-01T22:01:31.861Z,3.70
2022-12-01T22:04:02.703Z,3.70
2022-12-01T22:06:39.527Z,3.70
2022-12-01T22:09:26.477Z,3.70
2022-12-01T22:11:59.659Z,3.70
2022-12-01T22:14:33.605Z,3.70
2022-12-01T22:17:20.947Z,3.70
2022-12-01T22:20:14.057Z,3.60
2022-12-01T22:22:40.923Z,3.70
2022-12-01T22:25:24.240Z,3.60
2022-12-01T22:27:52.099Z,3.70
2022-12-01T22:30:21.149Z,3.70
2022-12-01T22:33:03.829Z,3.70
2022-12-01T22:35:49.170Z,3.80
2022-12-01T22:38:29.531Z,3.70
2022-12-01T22:41:13.905Z,3.70
2022-12-01T22:43:50.835Z,3.60
2022-12-01T22:46:29.366Z,3.60
2022-12-01T22:48:58.094Z,3.60
2022-12-01T22:51:28.747Z,3.60
2022-12-01T22:54:06.177Z,3.60
2022-12-01T22:56:43.862Z,3.60
2022-12-01T22:59:19.074Z,3.60
2022-12-01T23:01:53.521Z,3.60
2022-12-01T23:04:27.538Z,3.50
2022-12-01T23:07:12.786Z,3.50
2022-12-01T23:09:44.689Z,3.50
2022-12-01T23:12:11.479Z,3.40
2022-12-01T23:14:47.865Z,3.40
2022-12-01T23:17:29.768Z,3.40
2022-12-01T23:20:14.520Z,3.40
2022-12-01T23:22:41.574Z,3.40
2022-12-01T23:25:17.419Z,3.30
2022-12-01T23:27:46.216Z,3.30
2022-12-01T23:30:14.825Z,3.30
2022-12-01T23:32:42.829Z,3.30
2022-12-01T23:35:18.300Z,3.30
2022-12-01T23:37:47.976Z,3.30
2022-12-01T23:40:19.075Z,3.30
2022-12-01T23:42:46.249Z,3.30
2022-12-01T23:45:25.144Z,3.40
2022-12-01T23:47:54.307Z,3.40
2022-12-01T23:50:26.495Z,3.40
2022-12-01T23:52:54.230Z,3.40
2022-12-01T23:55:28.676Z,3.30
2022-12-01T23:57:56.322Z,3.30
